Time;durP1;ratioP1;P1;durP2;ratioP2;P2;SDS_P1;SDS_P2;PMS_P1;PMS_P2;Temp;Humidity;BMP_temperature;BMP_pressure;BME280_temperature;BME280_humidity;BME280_pressure;Samples;Min_cycle;Max_cycle;Signal;HPM_P1;HPM_P2
2022/08/19 00:01:15;;;;;;;5.40;4.63;;;22.20;99.90;;;;;;4995002;28;20241;-73
2022/08/19 00:03:43;;;;;;;4.70;4.30;;;22.20;99.90;;;;;;4997428;28;20199;-73
2022/08/19 00:06:09;;;;;;;4.88;4.30;;;22.20;99.90;;;;;;5012112;28;20183;-73
2022/08/19 00:08:35;;;;;;;5.07;4.57;;;22.20;99.90;;;;;;5013517;28;20195;-74
2022/08/19 00:11:03;;;;;;;4.85;4.38;;;22.20;99.90;;;;;;4994743;28;20218;-74
2022/08/19 00:13:32;;;;;;;4.88;4.38;;;22.10;99.90;;;;;;4994185;28;20249;-73
2022/08/19 00:16:00;;;;;;;4.30;3.90;;;22.10;99.90;;;;;;4995190;28;20220;-73
2022/08/19 00:18:30;;;;;;;5.30;4.50;;;22.10;99.90;;;;;;4997685;28;20186;-74
2022/08/19 00:20:56;;;;;;;4.82;4.05;;;22.00;99.90;;;;;;5014070;28;20234;-73
2022/08/19 00:23:24;;;;;;;6.13;4.65;;;22.00;99.90;;;;;;5019828;28;20285;-73
2022/08/19 00:25:50;;;;;;;4.60;4.20;;;22.00;99.90;;;;;;4998561;28;20203;-73
2022/08/19 00:28:16;;;;;;;5.18;4.68;;;21.90;99.90;;;;;;4984950;28;20191;-73
2022/08/19 00:30:41;;;;;;;4.75;4.15;;;21.90;99.90;;;;;;4999124;28;20195;-73
2022/08/19 00:33:08;;;;;;;4.90;4.50;;;21.90;99.90;;;;;;5017821;28;20238;-72
2022/08/19 00:35:38;;;;;;;6.60;4.38;;;21.90;99.90;;;;;;5001976;28;20198;-73
2022/08/19 00:38:05;;;;;;;4.97;4.47;;;21.80;99.90;;;;;;4996493;28;20194;-72
2022/08/19 00:40:35;;;;;;;5.30;4.78;;;21.80;99.90;;;;;;5003039;28;20184;-74
2022/08/19 00:43:01;;;;;;;6.13;5.57;;;21.70;99.90;;;;;;5015504;28;20262;-73
2022/08/19 00:45:31;;;;;;;4.93;4.50;;;21.70;99.90;;;;;;4994976;28;20218;-73
2022/08/19 00:48:03;;;;;;;6.28;5.15;;;21.60;99.90;;;;;;4992510;28;20179;-73
2022/08/19 00:50:33;;;;;;;5.47;4.80;;;21.60;99.90;;;;;;5014245;28;20235;-73
2022/08/19 00:52:59;;;;;;;5.82;5.05;;;21.60;99.90;;;;;;4998315;28;20191;-72
2022/08/19 00:55:28;;;;;;;5.88;5.28;;;21.50;99.90;;;;;;4995268;28;20270;-73
2022/08/19 00:58:07;;;;;;;5.38;4.90;;;21.50;99.90;;;;;;5000233;28;20191;-73
2022/08/19 01:00:36;;;;;;;4.68;4.28;;;21.50;99.90;;;;;;5014454;28;20199;-73
2022/08/19 01:03:08;;;;;;;6.90;4.93;;;21.50;99.90;;;;;;5012126;28;20239;-74
2022/08/19 01:05:35;;;;;;;6.78;4.65;;;21.50;99.90;;;;;;4998544;28;20195;-73
2022/08/19 01:08:06;;;;;;;4.97;4.57;;;21.50;99.90;;;;;;4994657;28;20167;-73
2022/08/19 01:10:38;;;;;;;4.55;4.15;;;21.50;99.90;;;;;;4992377;28;20198;-74
2022/08/19 01:13:04;;;;;;;4.88;4.32;;;21.50;99.90;;;;;;5013798;28;20182;-73
2022/08/19 01:15:37;;;;;;;4.95;4.45;;;21.50;99.90;;;;;;4986177;28;20186;-74
2022/08/19 01:18:15;;;;;;;4.97;4.47;;;21.50;99.90;;;;;;5006811;28;20199;-75
2022/08/19 01:20:45;;;;;;;5.28;4.78;;;21.50;99.90;;;;;;5011073;28;20183;-74
2022/08/19 01:23:12;;;;;;;5.22;4.72;;;21.50;99.90;;;;;;5007368;28;20187;-72
2022/08/19 01:25:52;;;;;;;5.43;4.80;;;21.50;99.90;;;;;;4997827;28;20212;-73
2022/08/19 01:28:29;;;;;;;5.25;4.72;;;21.40;99.90;;;;;;5002922;28;20175;-74
2022/08/19 01:30:55;;;;;;;4.90;4.40;;;21.40;99.90;;;;;;4993670;28;20195;-73
2022/08/19 01:33:24;;;;;;;4.90;4.47;;;21.40;99.90;;;;;;4995739;28;20198;-73
2022/08/19 01:35:52;;;;;;;6.65;4.97;;;21.40;99.90;;;;;;4984468;28;20195;-73
2022/08/19 01:38:24;;;;;;;5.85;5.28;;;21.40;99.90;;;;;;5000468;28;20200;-74
2022/08/19 01:40:51;;;;;;;6.50;5.22;;;21.40;99.90;;;;;;4995260;28;20179;-74
2022/08/19 01:43:18;;;;;;;5.28;4.88;;;21.30;99.90;;;;;;5013340;28;20198;-74
2022/08/19 01:45:45;;;;;;;5.53;4.68;;;21.30;99.90;;;;;;5007980;28;20211;-74
2022/08/19 01:48:11;;;;;;;5.05;4.55;;;21.30;99.90;;;;;;4992850;28;20179;-72
2022/08/19 01:50:37;;;;;;;5.32;4.82;;;21.30;99.90;;;;;;5012527;28;20195;-74
2022/08/19 01:53:05;;;;;;;5.93;5.32;;;21.30;99.90;;;;;;4994571;28;20204;-73
2022/08/19 01:55:31;;;;;;;6.05;4.75;;;21.30;99.90;;;;;;4994894;28;20217;-74
2022/08/19 01:58:01;;;;;;;4.80;4.40;;;21.30;99.90;;;;;;5004360;28;20187;-74
2022/08/19 02:00:32;;;;;;;4.75;4.35;;;21.30;99.90;;;;;;4999620;28;20234;-74
2022/08/19 02:02:57;;;;;;;5.70;5.10;;;21.20;99.90;;;;;;4998944;28;20183;-74
2022/08/19 02:05:25;;;;;;;5.82;4.65;;;21.20;99.90;;;;;;4994429;28;20229;-73
2022/08/19 02:07:51;;;;;;;5.43;4.93;;;21.20;99.90;;;;;;4996727;28;20255;-74
2022/08/19 02:10:21;;;;;;;6.68;5.43;;;21.20;99.90;;;;;;5010197;28;20274;-73
2022/08/19 02:12:47;;;;;;;6.05;5.45;;;21.20;99.90;;;;;;4994114;28;20206;-74
2022/08/19 02:15:13;;;;;;;6.15;5.55;;;21.20;99.90;;;;;;4997351;28;20179;-73
2022/08/19 02:17:42;;;;;;;5.82;5.25;;;21.20;99.90;;;;;;4997381;28;20237;-74
2022/08/19 02:20:08;;;;;;;6.63;5.18;;;21.20;99.90;;;;;;5004932;28;20196;-74
2022/08/19 02:22:35;;;;;;;5.50;5.00;;;21.20;99.90;;;;;;4993261;28;20201;-74
2022/08/19 02:25:01;;;;;;;5.45;4.95;;;21.20;99.90;;;;;;5017052;28;20245;-74
2022/08/19 02:27:33;;;;;;;5.75;5.10;;;21.20;99.90;;;;;;5010952;28;20204;-74
2022/08/19 02:30:01;;;;;;;5.60;5.10;;;21.20;99.90;;;;;;4996352;28;20195;-74
2022/08/19 02:32:27;;;;;;;5.43;4.88;;;21.20;99.90;;;;;;5000609;28;20176;-74
2022/08/19 02:34:52;;;;;;;5.53;5.03;;;21.10;99.90;;;;;;5020003;28;20204;-74
2022/08/19 02:40:03;;;;;;;5.95;5.35;;;21.20;99.90;;;;;;4999791;28;20182;-74
2022/08/19 02:42:28;;;;;;;6.50;5.25;;;21.20;99.90;;;;;;5011913;28;20183;-74
2022/08/19 02:45:00;;;;;;;6.13;5.53;;;21.10;99.90;;;;;;5020137;28;20226;-73
2022/08/19 02:47:28;;;;;;;6.40;5.80;;;21.10;99.90;;;;;;5011596;28;20200;-74
2022/08/19 02:49:55;;;;;;;6.63;5.88;;;21.10;99.90;;;;;;5013722;28;20184;-74
2022/08/19 02:52:23;;;;;;;5.75;5.25;;;21.00;99.90;;;;;;4993853;28;20180;-74
2022/08/19 02:54:49;;;;;;;7.13;5.60;;;21.00;99.90;;;;;;4996669;28;20270;-74
2022/08/19 02:57:15;;;;;;;5.57;5.07;;;21.00;99.90;;;;;;5013885;28;20171;-74
2022/08/19 02:59:42;;;;;;;6.38;5.80;;;21.00;99.90;;;;;;5005858;28;20249;-73
2022/08/19 03:02:10;;;;;;;6.85;6.25;;;21.00;99.90;;;;;;4997513;28;20223;-74
2022/08/19 03:04:36;;;;;;;8.25;6.18;;;21.00;99.90;;;;;;4998783;28;20198;-74
2022/08/19 03:07:01;;;;;;;7.50;6.78;;;20.90;99.90;;;;;;4993437;28;20172;-74
2022/08/19 03:09:27;;;;;;;7.07;6.43;;;20.90;99.90;;;;;;4997163;28;20167;-74
2022/08/19 03:11:55;;;;;;;7.70;6.30;;;20.90;99.90;;;;;;5015252;28;20198;-74
2022/08/19 03:14:21;;;;;;;6.82;6.22;;;20.80;99.90;;;;;;5008327;28;20191;-74
2022/08/19 03:16:49;;;;;;;6.90;6.30;;;20.80;99.90;;;;;;5009422;28;20176;-74
2022/08/19 03:19:21;;;;;;;7.03;6.40;;;20.80;99.90;;;;;;5010002;28;20203;-73
2022/08/19 03:21:47;;;;;;;7.30;6.53;;;20.80;99.90;;;;;;5006859;28;20180;-73
2022/08/19 03:24:18;;;;;;;7.05;6.40;;;20.70;99.90;;;;;;4995912;28;20211;-74
2022/08/19 03:26:51;;;;;;;7.05;6.40;;;20.70;99.90;;;;;;5014837;28;20175;-74
2022/08/19 03:29:18;;;;;;;7.57;6.68;;;20.70;99.90;;;;;;4997116;28;20171;-74
2022/08/19 03:31:47;;;;;;;7.80;7.00;;;20.70;99.90;;;;;;4994787;28;20245;-73
2022/08/19 03:34:27;;;;;;;7.63;6.82;;;20.70;99.90;;;;;;5009411;28;20186;-74
2022/08/19 03:37:00;;;;;;;7.25;6.55;;;20.70;99.90;;;;;;4994390;28;20210;-74
2022/08/19 03:39:26;;;;;;;7.47;6.35;;;20.70;99.90;;;;;;4991930;28;20363;-74
2022/08/19 03:41:56;;;;;;;7.50;6.80;;;20.70;99.90;;;;;;4997140;28;20177;-74
2022/08/19 03:44:23;;;;;;;7.07;6.30;;;20.70;99.90;;;;;;5009131;28;20203;-74
2022/08/19 03:46:55;;;;;;;8.13;7.38;;;20.70;99.90;;;;;;4996398;28;20199;-74
2022/08/19 03:49:21;;;;;;;7.35;6.65;;;20.70;99.90;;;;;;4998285;28;20183;-74
2022/08/19 03:51:50;;;;;;;7.20;6.47;;;20.70;99.90;;;;;;5012417;28;20181;-74
2022/08/19 03:54:20;;;;;;;7.55;6.78;;;20.70;99.90;;;;;;4985691;28;20194;-74
2022/08/19 03:56:48;;;;;;;7.82;7.10;;;20.60;99.90;;;;;;5013697;28;20199;-74
2022/08/19 03:59:24;;;;;;;7.45;6.75;;;20.70;99.90;;;;;;5009283;28;20318;-74
2022/08/19 04:01:51;;;;;;;7.88;7.10;;;20.60;99.90;;;;;;4997593;28;20547;-74
2022/08/19 04:04:16;;;;;;;8.48;7.57;;;20.60;99.90;;;;;;4995269;28;20234;-73
2022/08/19 04:06:43;;;;;;;9.05;7.93;;;20.60;99.90;;;;;;4995014;28;20179;-73
2022/08/19 04:09:10;;;;;;;9.48;8.40;;;20.60;99.90;;;;;;4995844;28;20176;-74
2022/08/19 04:11:41;;;;;;;9.52;8.40;;;20.60;99.90;;;;;;5012687;28;20266;-72
2022/08/19 04:14:37;;;;;;;8.73;7.90;;;20.60;99.90;;;;;;5009531;28;20167;-74
2022/08/19 04:17:06;;;;;;;9.73;8.73;;;20.50;99.90;;;;;;5005684;28;20273;-74
2022/08/19 04:19:34;;;;;;;9.45;8.50;;;20.50;99.90;;;;;;4995573;28;20195;-75
2022/08/19 04:21:59;;;;;;;9.90;8.65;;;20.50;99.90;;;;;;4994256;28;20193;-74
2022/08/19 04:24:26;;;;;;;9.75;8.50;;;20.40;99.90;;;;;;4994610;28;20423;-74
2022/08/19 04:26:54;;;;;;;9.57;8.68;;;20.40;99.90;;;;;;5000934;28;20191;-74
2022/08/19 04:29:24;;;;;;;9.43;8.48;;;20.40;99.90;;;;;;4999972;28;20179;-74
2022/08/19 04:31:53;;;;;;;10.23;9.23;;;20.40;99.90;;;;;;5012424;28;20235;-74
2022/08/19 04:34:22;;;;;;;9.52;8.63;;;20.40;99.90;;;;;;5007827;28;20260;-75
2022/08/19 04:36:50;;;;;;;9.30;8.40;;;20.30;99.90;;;;;;5011886;28;20218;-74
2022/08/19 04:39:21;;;;;;;9.50;8.43;;;20.30;99.90;;;;;;5011536;28;20221;-73
2022/08/19 04:44:36;;;;;;;9.45;8.55;;;20.30;99.90;;;;;;4991684;28;20213;-74
2022/08/19 04:47:06;;;;;;;14.13;12.63;;;20.30;99.90;;;;;;4995085;28;20199;-75
2022/08/19 04:49:34;;;;;;;13.63;10.80;;;20.30;99.90;;;;;;4996312;28;20167;-74
2022/08/19 04:51:59;;;;;;;11.55;10.35;;;20.30;99.90;;;;;;5002092;28;20330;-74
2022/08/19 04:54:27;;;;;;;12.13;10.93;;;20.30;99.90;;;;;;5014144;28;20231;-74
2022/08/19 04:56:53;;;;;;;11.00;9.90;;;20.40;99.90;;;;;;4989047;28;20172;-74
2022/08/19 04:59:22;;;;;;;11.50;10.20;;;20.40;99.90;;;;;;4988459;28;20194;-74
2022/08/19 05:01:49;;;;;;;11.85;10.65;;;20.40;99.90;;;;;;4992145;28;20270;-74
2022/08/19 05:04:18;;;;;;;13.18;11.50;;;20.40;99.90;;;;;;5012502;28;20202;-75
2022/08/19 05:06:47;;;;;;;13.40;11.77;;;20.40;99.90;;;;;;4997412;28;20220;-75
2022/08/19 05:09:13;;;;;;;12.88;11.55;;;20.40;99.90;;;;;;5004866;28;20223;-74
2022/08/19 05:11:39;;;;;;;12.25;10.30;;;20.40;99.90;;;;;;5001063;28;20198;-74
2022/08/19 05:14:09;;;;;;;16.75;11.43;;;20.40;99.90;;;;;;4993888;28;20207;-74
2022/08/19 05:16:37;;;;;;;12.48;11.18;;;20.50;99.90;;;;;;5000870;28;20183;-75
2022/08/19 05:24:36;;;;;;;12.60;10.60;;;20.50;99.90;;;;;;4995938;28;20210;-74
2022/08/19 05:27:05;;;;;;;14.65;11.18;;;20.50;99.90;;;;;;5002974;28;20167;-74
2022/08/19 05:29:31;;;;;;;12.80;10.75;;;20.50;99.90;;;;;;5012766;28;20203;-75
2022/08/19 05:31:59;;;;;;;12.30;10.95;;;20.50;99.90;;;;;;5012292;28;20179;-75
2022/08/19 05:34:26;;;;;;;12.30;11.05;;;20.60;99.90;;;;;;5012089;28;20403;-74
2022/08/19 05:36:57;;;;;;;12.30;11.05;;;20.60;99.90;;;;;;5011741;28;20245;-74
2022/08/19 05:39:28;;;;;;;15.18;12.15;;;20.60;99.90;;;;;;5007094;28;20179;-75
2022/08/19 05:42:07;;;;;;;14.02;11.73;;;20.60;99.90;;;;;;4990692;28;20176;-75
2022/08/19 05:44:36;;;;;;;14.35;12.68;;;20.60;99.90;;;;;;4989331;28;20234;-74
2022/08/19 05:47:04;;;;;;;14.05;12.60;;;20.60;99.90;;;;;;5016366;28;20207;-74
2022/08/19 05:49:31;;;;;;;14.55;12.77;;;20.60;99.90;;;;;;5013997;28;20206;-73
2022/08/19 05:52:05;;;;;;;13.57;12.18;;;20.60;99.90;;;;;;5003738;28;20222;-75
2022/08/19 05:54:32;;;;;;;13.13;11.75;;;20.60;99.90;;;;;;5014068;28;20206;-74
2022/08/19 05:57:00;;;;;;;13.95;11.82;;;20.60;99.90;;;;;;4994942;28;20200;-75
2022/08/19 05:59:26;;;;;;;13.27;11.73;;;20.60;99.90;;;;;;4995515;28;20202;-75
2022/08/19 06:01:55;;;;;;;12.07;10.80;;;20.60;99.90;;;;;;4996859;28;20183;-74
2022/08/19 06:04:24;;;;;;;13.38;11.27;;;20.60;99.90;;;;;;5007323;28;20210;-75
2022/08/19 06:06:53;;;;;;;14.75;13.13;;;20.60;99.90;;;;;;4991741;28;20241;-75
2022/08/19 06:09:24;;;;;;;13.13;11.73;;;20.70;99.90;;;;;;5011347;28;20262;-73
2022/08/19 06:11:59;;;;;;;15.43;13.10;;;20.70;99.90;;;;;;5014117;28;20255;-77
2022/08/19 06:14:30;;;;;;;15.52;12.43;;;20.70;99.90;;;;;;4994029;28;20250;-76
2022/08/19 06:16:57;;;;;;;13.65;12.27;;;20.70;99.90;;;;;;5012020;28;20191;-76
2022/08/19 06:19:28;;;;;;;13.95;12.52;;;20.70;99.90;;;;;;5018827;28;20183;-75
2022/08/19 06:21:54;;;;;;;13.98;12.48;;;20.70;99.90;;;;;;5012199;28;20194;-75
2022/08/19 06:24:23;;;;;;;14.50;13.00;;;20.70;99.90;;;;;;5012909;28;20204;-74
2022/08/19 06:26:50;;;;;;;15.38;12.45;;;20.80;99.90;;;;;;4994185;28;20190;-75
2022/08/19 06:29:20;;;;;;;15.82;13.65;;;20.80;99.90;;;;;;4996907;28;20180;-75
2022/08/19 06:31:51;;;;;;;15.98;13.18;;;20.80;99.90;;;;;;4994505;28;20195;-76
2022/08/19 06:34:18;;;;;;;13.63;11.82;;;20.80;99.90;;;;;;5010084;28;20198;-75
2022/08/19 06:36:49;;;;;;;19.70;17.58;;;20.90;99.90;;;;;;4993152;28;20215;-76
2022/08/19 06:39:20;;;;;;;16.23;14.52;;;20.90;99.90;;;;;;5009634;28;20249;-76
2022/08/19 06:41:51;;;;;;;15.15;13.57;;;20.90;99.90;;;;;;5012674;28;20176;-75
2022/08/19 06:44:19;;;;;;;15.60;13.00;;;21.00;99.90;;;;;;4998074;28;20235;-76
2022/08/19 06:46:48;;;;;;;18.65;13.65;;;21.00;99.90;;;;;;5003592;28;20172;-76
2022/08/19 06:49:14;;;;;;;20.77;17.90;;;21.00;99.90;;;;;;5005746;28;20187;-74
2022/08/19 06:51:46;;;;;;;19.02;16.83;;;21.10;99.90;;;;;;5013349;28;20292;-75
2022/08/19 06:54:11;;;;;;;16.38;14.55;;;21.10;99.90;;;;;;5010137;28;20203;-77
2022/08/19 06:56:38;;;;;;;15.75;13.63;;;21.10;99.90;;;;;;4993915;28;20219;-77
2022/08/19 06:59:11;;;;;;;16.95;13.68;;;21.20;99.90;;;;;;4997085;28;20224;-80
2022/08/19 07:01:39;;;;;;;17.55;14.43;;;21.30;99.90;;;;;;4994322;28;20172;-77
2022/08/19 07:04:08;;;;;;;16.35;14.32;;;21.30;99.90;;;;;;4997338;28;20206;-77
2022/08/19 07:06:36;;;;;;;16.50;13.40;;;21.40;99.90;;;;;;5013499;28;20432;-77
2022/08/19 07:09:07;;;;;;;19.02;13.95;;;21.40;99.90;;;;;;4998355;28;20191;-76
2022/08/19 07:11:33;;;;;;;14.27;12.70;;;21.50;99.90;;;;;;4996872;28;20197;-76
2022/08/19 07:14:02;;;;;;;17.17;14.70;;;21.60;99.90;;;;;;5013345;28;20167;-76
2022/08/19 07:16:34;;;;;;;16.80;14.68;;;21.60;99.90;;;;;;5010272;28;20183;-77
2022/08/19 07:19:00;;;;;;;17.70;14.80;;;21.70;99.90;;;;;;4996346;28;20175;-78
2022/08/19 07:21:28;;;;;;;17.45;14.73;;;21.80;99.90;;;;;;5014041;28;20177;-76
2022/08/19 07:23:55;;;;;;;16.55;13.23;;;21.80;99.90;;;;;;5012551;28;20201;-80
2022/08/19 07:26:27;;;;;;;13.88;12.27;;;21.90;99.90;;;;;;5002728;28;20299;-69
2022/08/19 07:28:57;;;;;;;13.70;12.27;;;22.00;99.90;;;;;;4991286;28;20195;-68
2022/08/19 07:31:26;;;;;;;14.68;11.27;;;22.10;99.90;;;;;;5004807;28;20304;-70
2022/08/19 07:33:56;;;;;;;13.45;11.50;;;22.20;99.90;;;;;;5004556;28;20171;-69
2022/08/19 07:36:25;;;;;;;14.00;11.95;;;22.20;99.90;;;;;;4993798;28;20269;-69
2022/08/19 07:38:54;;;;;;;14.13;10.98;;;22.40;99.90;;;;;;4995109;28;20197;-69
2022/08/19 07:41:23;;;;;;;14.15;12.25;;;22.50;99.90;;;;;;4991735;28;20225;-68
2022/08/19 07:43:52;;;;;;;13.80;11.43;;;22.60;99.90;;;;;;4992209;28;20178;-69
2022/08/19 07:46:21;;;;;;;12.88;10.35;;;22.60;99.90;;;;;;4995548;28;20298;-70
2022/08/19 07:48:49;;;;;;;12.82;10.15;;;22.70;99.90;;;;;;5010578;28;20195;-69
2022/08/19 07:51:19;;;;;;;16.42;10.75;;;22.80;99.90;;;;;;5005539;28;20175;-70
2022/08/19 07:53:45;;;;;;;12.80;11.07;;;22.90;99.90;;;;;;5016135;28;20194;-70
2022/08/19 07:56:13;;;;;;;11.95;10.55;;;23.00;99.90;;;;;;4993130;28;20192;-70
2022/08/19 07:58:45;;;;;;;13.30;10.48;;;23.00;99.90;;;;;;5006758;28;20188;-70
2022/08/19 08:01:14;;;;;;;16.02;12.52;;;23.10;99.90;;;;;;5002271;28;20243;-70
2022/08/19 08:09:19;;;;;;;13.80;11.95;;;23.30;99.90;;;;;;4991574;28;20183;-69
2022/08/19 08:11:49;;;;;;;12.00;9.70;;;23.40;99.90;;;;;;5001980;28;20194;-70
2022/08/19 08:14:22;;;;;;;10.50;8.82;;;23.50;99.90;;;;;;4989823;28;20198;-69
2022/08/19 08:16:52;;;;;;;11.80;8.90;;;23.60;99.90;;;;;;5011867;28;20258;-69
2022/08/19 08:19:20;;;;;;;10.88;9.60;;;23.70;99.90;;;;;;5003747;28;20214;-70
2022/08/19 08:21:49;;;;;;;12.38;10.15;;;23.90;99.90;;;;;;5000790;28;20302;-71
2022/08/19 08:24:21;;;;;;;9.77;8.77;;;23.90;99.90;;;;;;4991940;28;20255;-70
2022/08/19 08:26:47;;;;;;;12.30;9.27;;;24.00;99.90;;;;;;4995207;28;20346;-70
2022/08/19 08:29:15;;;;;;;10.45;8.57;;;24.10;99.90;;;;;;5005951;28;20278;-73
2022/08/19 08:31:44;;;;;;;9.38;8.38;;;24.20;99.90;;;;;;4992872;28;20229;-68
2022/08/19 08:34:13;;;;;;;11.85;9.77;;;24.30;99.90;;;;;;5007186;28;20180;-68
2022/08/19 08:36:47;;;;;;;9.68;8.68;;;24.40;99.90;;;;;;4987278;28;20256;-69
2022/08/19 08:39:16;;;;;;;9.35;7.78;;;24.50;99.90;;;;;;5001240;28;20199;-68
2022/08/19 08:42:18;;;;;;;9.60;7.57;;;24.50;99.90;;;;;;4987768;28;20187;-69
2022/08/19 08:45:11;;;;;;;10.13;8.57;;;24.50;99.90;;;;;;4993205;28;20186;-68
2022/08/19 08:47:39;;;;;;;9.23;8.23;;;24.60;99.90;;;;;;4989511;28;20167;-67
2022/08/19 08:50:14;;;;;;;9.80;8.38;;;24.60;99.90;;;;;;4990770;28;20172;-69
2022/08/19 08:52:47;;;;;;;10.73;8.63;;;24.70;99.90;;;;;;4991981;28;20226;-69
2022/08/19 08:55:19;;;;;;;11.30;8.07;;;24.70;99.90;;;;;;4988861;28;20183;-69
2022/08/19 08:57:48;;;;;;;11.30;8.55;;;24.70;99.90;;;;;;5009544;28;20195;-67
2022/08/19 09:00:41;;;;;;;13.27;10.35;;;24.70;99.90;;;;;;4992275;28;20179;-69
2022/08/19 09:03:19;;;;;;;12.48;10.20;;;24.80;99.90;;;;;;4983376;28;20294;-69
2022/08/19 09:06:02;;;;;;;12.40;9.73;;;24.80;99.90;;;;;;4995597;28;20199;-70
2022/08/19 09:08:49;;;;;;;16.73;12.60;;;24.80;99.90;;;;;;4994440;28;20191;-69
2022/08/19 09:11:41;;;;;;;13.30;10.43;;;24.80;99.90;;;;;;4988321;28;20219;-69
2022/08/19 09:14:32;;;;;;;13.27;9.73;;;24.90;99.90;;;;;;4982749;28;20198;-69
2022/08/19 09:16:59;;;;;;;11.90;10.27;;;24.90;99.90;;;;;;4998008;28;22158;-70
2022/08/19 09:19:25;;;;;;;16.02;12.82;;;25.00;99.90;;;;;;4990694;28;20194;-68
2022/08/19 09:21:50;;;;;;;16.75;12.93;;;25.00;99.90;;;;;;5005600;28;20186;-69
2022/08/19 09:24:16;;;;;;;15.98;11.90;;;25.00;99.90;;;;;;5006602;28;20172;-68
2022/08/19 09:26:43;;;;;;;16.50;12.73;;;25.10;99.90;;;;;;4986414;28;20176;-70
2022/08/19 09:29:11;;;;;;;20.05;16.67;;;25.10;99.90;;;;;;4999204;28;20238;-69
2022/08/19 09:31:38;;;;;;;21.65;16.38;;;25.20;99.90;;;;;;5002504;28;20195;-68
2022/08/19 09:34:08;;;;;;;18.23;14.63;;;25.20;99.90;;;;;;5004911;28;20234;-69
2022/08/19 09:36:38;;;;;;;13.77;12.25;;;25.20;99.90;;;;;;4985951;28;20219;-70
2022/08/19 09:39:06;;;;;;;14.18;12.02;;;25.20;99.90;;;;;;5011582;28;20233;-69
2022/08/19 09:41:32;;;;;;;15.57;13.02;;;25.30;99.90;;;;;;4994071;28;20195;-70
2022/08/19 09:43:59;;;;;;;19.52;15.55;;;25.30;99.90;;;;;;5011693;28;20187;-70
2022/08/19 09:46:27;;;;;;;14.93;13.07;;;25.40;99.90;;;;;;4989106;28;20215;-70
2022/08/19 09:48:53;;;;;;;16.38;12.93;;;25.40;99.90;;;;;;4990879;28;20179;-69
2022/08/19 09:51:25;;;;;;;14.07;10.30;;;25.50;99.90;;;;;;5013734;28;20175;-69
2022/08/19 09:53:53;;;;;;;13.85;11.15;;;25.60;99.90;;;;;;4995581;28;20186;-72
2022/08/19 09:56:22;;;;;;;15.77;13.40;;;25.70;99.90;;;;;;4995787;28;20210;-70
2022/08/19 09:58:48;;;;;;;15.45;13.07;;;25.70;99.90;;;;;;4999155;28;20187;-70
2022/08/19 10:01:22;;;;;;;14.75;11.85;;;25.80;99.90;;;;;;4993808;28;20194;-70
2022/08/19 10:03:54;;;;;;;14.80;12.48;;;25.90;99.90;;;;;;4994051;28;20195;-70
2022/08/19 10:06:23;;;;;;;21.23;13.07;;;26.00;99.90;;;;;;5005500;28;20199;-68
2022/08/19 10:08:49;;;;;;;13.82;11.50;;;26.10;99.90;;;;;;4993349;28;20201;-67
2022/08/19 10:11:16;;;;;;;16.05;12.98;;;26.20;99.90;;;;;;5007029;28;20176;-69
2022/08/19 10:13:43;;;;;;;13.07;11.68;;;26.20;99.90;;;;;;4992001;28;21970;-68
2022/08/19 10:16:13;;;;;;;12.70;11.23;;;26.40;99.90;;;;;;5003885;28;20187;-69
2022/08/19 10:18:43;;;;;;;13.75;12.18;;;26.60;99.90;;;;;;5011012;28;20187;-68
2022/08/19 10:21:15;;;;;;;14.18;12.55;;;26.80;99.90;;;;;;4997230;28;20273;-68
2022/08/19 10:23:46;;;;;;;13.23;11.32;;;26.80;99.90;;;;;;5006408;28;20195;-67
2022/08/19 10:26:18;;;;;;;19.15;14.63;;;26.90;99.90;;;;;;5004452;28;20195;-67
2022/08/19 10:28:44;;;;;;;16.15;12.50;;;27.10;99.90;;;;;;4996950;28;20234;-68
2022/08/19 10:31:14;;;;;;;16.08;13.05;;;27.30;99.90;;;;;;5002019;28;20182;-67
2022/08/19 10:33:40;;;;;;;11.27;10.18;;;27.50;99.90;;;;;;4993097;28;20237;-68
2022/08/19 10:36:14;;;;;;;12.10;10.65;;;27.60;99.90;;;;;;5005358;28;20207;-67
2022/08/19 10:38:40;;;;;;;11.27;10.13;;;27.70;99.90;;;;;;4994896;28;20183;-67
2022/08/19 10:41:08;;;;;;;12.07;10.75;;;27.80;99.90;;;;;;4996362;28;20183;-68
2022/08/19 10:43:38;;;;;;;13.77;10.23;;;28.00;99.90;;;;;;5000733;28;20184;-67
2022/08/19 10:46:05;;;;;;;11.23;10.02;;;28.30;99.90;;;;;;5009290;28;20195;-68
2022/08/19 10:48:31;;;;;;;10.57;9.27;;;28.50;99.90;;;;;;4995279;28;20400;-68
2022/08/19 10:53:41;;;;;;;9.48;8.50;;;28.60;99.90;;;;;;4986864;28;20210;-68
2022/08/19 10:58:56;;;;;;;9.05;8.15;;;29.00;99.90;;;;;;4994825;28;20283;-66
2022/08/19 11:01:22;;;;;;;9.07;8.18;;;29.10;99.90;;;;;;4995364;28;20203;-66
2022/08/19 11:03:47;;;;;;;7.50;6.70;;;29.10;99.90;;;;;;4998250;28;20190;-67
2022/08/19 11:06:15;;;;;;;7.50;6.78;;;29.10;99.90;;;;;;5004584;28;20199;-68
2022/08/19 11:08:44;;;;;;;7.00;6.30;;;29.00;99.90;;;;;;5009172;28;20265;-67
2022/08/19 11:11:11;;;;;;;7.30;6.60;;;28.90;99.90;;;;;;5003180;28;20183;-69
2022/08/19 11:13:39;;;;;;;7.63;6.82;;;28.80;99.90;;;;;;5003565;28;20200;-67
2022/08/19 11:16:13;;;;;;;6.28;5.72;;;28.80;99.60;;;;;;4993992;28;20330;-70
2022/08/19 11:18:44;;;;;;;6.32;5.70;;;28.90;99.80;;;;;;5009963;28;20427;-70
2022/08/19 11:21:19;;;;;;;6.05;5.55;;;29.10;99.90;;;;;;5010644;28;20211;-70
2022/08/19 11:23:52;;;;;;;6.03;5.53;;;29.30;98.70;;;;;;4993838;28;20179;-70
2022/08/19 11:26:20;;;;;;;6.97;6.28;;;29.40;97.20;;;;;;4989544;28;20215;-70
2022/08/19 11:28:47;;;;;;;7.40;6.60;;;29.40;97.80;;;;;;5008732;28;20175;-70
2022/08/19 11:31:16;;;;;;;6.53;5.93;;;29.20;96.40;;;;;;5000703;28;20183;-70
2022/08/19 11:33:45;;;;;;;6.60;5.82;;;29.10;95.70;;;;;;5001637;28;20202;-70
2022/08/19 11:36:13;;;;;;;6.35;5.72;;;28.90;95.70;;;;;;4994192;28;20224;-70
2022/08/19 11:38:39;;;;;;;6.03;4.65;;;28.70;95.40;;;;;;4993556;28;20239;-69
2022/08/19 11:41:07;;;;;;;7.35;5.85;;;28.50;95.80;;;;;;4999903;28;20200;-70
2022/08/19 11:43:34;;;;;;;7.05;6.35;;;28.40;95.90;;;;;;5007768;28;20175;-70
2022/08/19 11:46:06;;;;;;;7.47;6.18;;;28.40;96.40;;;;;;4995266;28;20215;-71
2022/08/19 11:48:35;;;;;;;7.88;7.03;;;28.50;96.80;;;;;;5007801;28;20247;-69
2022/08/19 11:51:05;;;;;;;6.38;5.78;;;28.80;96.80;;;;;;5003835;28;20180;-70
2022/08/19 11:53:32;;;;;;;10.90;6.25;;;29.00;96.90;;;;;;4995998;28;20195;-70
2022/08/19 11:55:58;;;;;;;7.50;6.28;;;29.10;96.80;;;;;;4994705;28;20251;-71
2022/08/19 11:58:24;;;;;;;6.90;5.78;;;29.10;95.80;;;;;;4998806;28;20231;-67
2022/08/19 12:00:53;;;;;;;6.07;5.20;;;29.10;95.60;;;;;;4997683;28;20179;-67
2022/08/19 12:03:24;;;;;;;5.85;5.32;;;29.10;95.00;;;;;;4983972;28;20246;-69
2022/08/19 12:05:52;;;;;;;5.57;5.03;;;29.20;94.20;;;;;;5010624;28;20202;-67
2022/08/19 12:08:18;;;;;;;7.25;5.43;;;29.40;94.60;;;;;;4990580;28;20283;-68
2022/08/19 12:10:45;;;;;;;5.75;5.25;;;29.60;94.50;;;;;;5007080;28;20285;-68
2022/08/19 12:13:15;;;;;;;6.38;5.78;;;29.80;94.70;;;;;;4994266;28;20214;-69
2022/08/19 12:15:45;;;;;;;8.05;6.53;;;30.00;93.70;;;;;;5000116;28;20198;-69
2022/08/19 12:18:10;;;;;;;7.20;6.50;;;30.10;92.20;;;;;;5007046;28;20218;-71
2022/08/19 12:20:38;;;;;;;7.25;6.20;;;30.30;93.10;;;;;;4999800;28;20190;-68
2022/08/19 12:23:05;;;;;;;7.15;6.45;;;30.40;92.90;;;;;;5006886;28;20189;-68
2022/08/19 12:25:31;;;;;;;6.50;5.90;;;30.50;91.70;;;;;;5007644;28;20222;-67
2022/08/19 12:28:00;;;;;;;7.80;7.00;;;30.60;92.30;;;;;;4998510;28;20209;-68
2022/08/19 12:30:27;;;;;;;6.78;6.15;;;30.70;91.70;;;;;;4992518;28;20218;-68
2022/08/19 12:32:53;;;;;;;14.20;6.20;;;30.80;91.80;;;;;;4991978;28;20189;-68
2022/08/19 12:35:22;;;;;;;6.47;5.85;;;30.90;91.80;;;;;;5007102;28;20182;-67
2022/08/19 12:37:48;;;;;;;6.20;5.60;;;31.00;92.10;;;;;;5006284;28;20191;-67
2022/08/19 12:40:17;;;;;;;6.70;6.13;;;31.20;91.60;;;;;;4991544;28;20179;-68
2022/08/19 12:42:43;;;;;;;6.53;5.72;;;31.30;90.90;;;;;;5016477;28;20220;-68
2022/08/19 12:45:10;;;;;;;8.30;7.50;;;31.50;90.80;;;;;;5018001;28;20190;-67
2022/08/19 12:47:36;;;;;;;7.68;6.85;;;31.50;88.00;;;;;;4996306;28;20254;-69
2022/08/19 12:50:08;;;;;;;7.68;6.90;;;31.60;89.20;;;;;;5008318;28;20233;-70
2022/08/19 12:52:36;;;;;;;7.53;6.82;;;31.60;87.20;;;;;;4987874;28;20171;-73
2022/08/19 12:55:06;;;;;;;8.32;7.53;;;31.60;87.10;;;;;;5007758;28;20221;-73
2022/08/19 12:57:35;;;;;;;8.98;7.95;;;31.60;86.20;;;;;;5000429;28;20170;-73
2022/08/19 13:00:08;;;;;;;10.18;8.40;;;31.70;85.70;;;;;;4993559;28;20189;-69
2022/08/19 13:02:36;;;;;;;8.90;8.10;;;31.70;84.80;;;;;;4994694;28;20203;-68
2022/08/19 13:05:02;;;;;;;8.18;7.43;;;31.70;84.90;;;;;;4994594;28;20195;-67
2022/08/19 13:07:27;;;;;;;9.30;6.88;;;31.70;83.90;;;;;;5002672;28;20193;-68
2022/08/19 13:09:53;;;;;;;7.75;7.03;;;31.70;84.00;;;;;;5010399;28;20307;-67